createdAt,value
2022-08-22T00:02:03.300Z,98.29
2022-08-22T00:02:44.477Z,92.17
2022-08-22T00:02:45.174Z,74.95
2022-08-22T00:04:19.737Z,97.87
2022-08-22T00:06:36.530Z,97.75
2022-08-22T00:08:51.035Z,97.62
2022-08-22T00:11:27.928Z,97.26
2022-08-22T00:14:01.544Z,96.58
2022-08-22T00:16:05.957Z,95.85
2022-08-22T00:18:19.011Z,95.35
2022-08-22T00:20:29.970Z,95.41
2022-08-22T00:22:40.267Z,95.73
2022-08-22T00:24:58.420Z,95.31
2022-08-22T00:27:07.813Z,95.47
2022-08-22T00:29:17.671Z,95.87
2022-08-22T00:31:32.211Z,95.99
2022-08-22T00:33:53.701Z,96.11
2022-08-22T00:36:16.845Z,95.88
2022-08-22T00:38:36.750Z,96.03
2022-08-22T00:40:45.754Z,96.01
2022-08-22T00:43:20.997Z,96.43
2022-08-22T00:45:33.627Z,96.21
2022-08-22T00:47:38.513Z,95.85
2022-08-22T00:50:10.122Z,95.81
2022-08-22T00:52:30.159Z,95.84
2022-08-22T00:55:03.628Z,95.36
2022-08-22T00:57:36.469Z,95.26
2022-08-22T00:59:38.327Z,95.60
2022-08-22T01:01:52.612Z,95.49
2022-08-22T01:04:27.301Z,95.65
2022-08-22T01:07:08.534Z,95.43
2022-08-22T01:09:37.691Z,94.90
2022-08-22T01:12:08.438Z,94.93
2022-08-22T01:14:37.099Z,95.08
2022-08-22T01:17:19.979Z,95.16
2022-08-22T01:20:18.666Z,95.32
2022-08-22T01:22:27.545Z,95.61
2022-08-22T01:25:22.412Z,95.61
2022-08-22T01:27:33.655Z,95.62
2022-08-22T01:29:53.488Z,95.87
2022-08-22T01:32:32.621Z,96.10
2022-08-22T01:35:03.500Z,95.98
2022-08-22T01:38:06.434Z,96.52
2022-08-22T01:40:34.960Z,96.59
2022-08-22T01:43:03.787Z,96.58
2022-08-22T01:45:49.750Z,96.75
2022-08-22T01:48:13.212Z,96.87
2022-08-22T01:50:21.515Z,96.87
2022-08-22T01:53:12.241Z,97.25
2022-08-22T01:55:33.560Z,97.11
2022-08-22T01:57:59.884Z,97.36
2022-08-22T02:00:08.891Z,97.22
2022-08-22T02:02:56.049Z,96.93
2022-08-22T02:05:11.467Z,97.26
2022-08-22T02:07:31.765Z,97.20
2022-08-22T02:10:04.150Z,97.33
2022-08-22T02:12:25.295Z,97.19
2022-08-22T02:15:03.541Z,97.28
2022-08-22T02:17:22.127Z,96.70
2022-08-22T02:19:34.311Z,96.45
2022-08-22T02:21:47.831Z,96.42
2022-08-22T02:24:15.771Z,96.22
2022-08-22T02:26:41.822Z,96.01
2022-08-22T02:28:56.944Z,96.18
2022-08-22T02:31:18.748Z,96.45
2022-08-22T02:33:34.405Z,96.34
2022-08-22T02:36:12.105Z,95.95
2022-08-22T02:38:32.309Z,96.08
2022-08-22T02:41:12.107Z,95.79
2022-08-22T02:43:28.355Z,95.86
2022-08-22T02:45:36.974Z,95.59
2022-08-22T02:48:00.618Z,95.81
2022-08-22T02:50:17.519Z,95.96
2022-08-22T02:52:33.376Z,95.52
2022-08-22T02:55:18.861Z,95.51
2022-08-22T02:57:27.517Z,95.38
2022-08-22T02:59:35.805Z,95.47
2022-08-22T03:01:42.116Z,95.16
2022-08-22T03:03:47.471Z,95.25
2022-08-22T03:06:01.377Z,95.12
2022-08-22T03:08:13.204Z,95.19
2022-08-22T03:10:38.247Z,95.13
2022-08-22T03:13:10.347Z,95.10
2022-08-22T03:15:34.761Z,95.37
2022-08-22T03:18:00.380Z,95.36
2022-08-22T03:20:19.469Z,95.30
2022-08-22T03:22:33.863Z,94.87
2022-08-22T03:25:23.127Z,94.82
2022-08-22T03:27:34.848Z,94.74
2022-08-22T03:29:50.612Z,94.76
2022-08-22T03:32:14.047Z,94.61
2022-08-22T03:34:24.200Z,95.13
2022-08-22T03:36:29.132Z,94.96
2022-08-22T03:38:36.076Z,94.97
2022-08-22T03:40:47.775Z,95.02
2022-08-22T03:43:00.437Z,94.43
2022-08-22T03:45:20.387Z,94.46
2022-08-22T03:47:51.876Z,94.54
2022-08-22T03:50:28.090Z,94.57
2022-08-22T03:52:57.336Z,94.32
2022-08-22T03:55:41.820Z,94.36
2022-08-22T03:58:03.145Z,94.64
2022-08-22T04:00:19.140Z,94.70
2022-08-22T04:03:05.112Z,94.40
2022-08-22T04:05:37.938Z,94.09
2022-08-22T04:08:17.990Z,93.64
2022-08-22T04:10:31.370Z,92.73
2022-08-22T04:12:55.238Z,92.27
2022-08-22T04:14:59.892Z,91.60
2022-08-22T04:17:35.818Z,90.63
2022-08-22T04:20:15.196Z,90.27
2022-08-22T04:22:30.607Z,89.34
2022-08-22T04:25:08.433Z,89.02
2022-08-22T04:27:34.265Z,88.49
2022-08-22T04:29:53.330Z,87.86
2022-08-22T04:32:12.822Z,87.12
2022-08-22T04:34:22.958Z,86.73
2022-08-22T04:36:43.470Z,86.44
2022-08-22T04:38:55.356Z,85.73
2022-08-22T04:41:24.784Z,84.87
2022-08-22T04:43:45.223Z,84.72
2022-08-22T04:45:53.610Z,83.95
2022-08-22T04:48:04.785Z,82.21
2022-08-22T04:50:25.453Z,82.99
2022-08-22T04:52:30.950Z,83.11
2022-08-22T04:54:53.712Z,82.63
2022-08-22T04:57:19.667Z,82.71
2022-08-22T04:59:24.248Z,81.98
2022-08-22T05:01:37.604Z,81.24
2022-08-22T05:03:55.058Z,80.29
2022-08-22T05:06:02.305Z,80.53
2022-08-22T05:08:12.558Z,78.75
2022-08-22T05:10:37.924Z,78.09
2022-08-22T05:13:21.230Z,79.65
2022-08-22T05:15:33.602Z,78.21
2022-08-22T05:17:36.515Z,77.41
2022-08-22T05:19:45.637Z,78.19
2022-08-22T05:21:50.946Z,77.36
2022-08-22T05:24:05.289Z,77.43
2022-08-22T05:26:09.951Z,77.72
2022-08-22T05:28:40.059Z,77.94
2022-08-22T05:30:48.550Z,77.17
2022-08-22T05:33:10.052Z,76.32
2022-08-22T05:35:12.243Z,77.11
2022-08-22T05:37:19.727Z,75.87
2022-08-22T05:39:25.540Z,75.74
2022-08-22T05:41:37.874Z,73.38
2022-08-22T05:43:43.745Z,72.86
2022-08-22T05:45:49.236Z,74.31
2022-08-22T05:48:05.135Z,74.36
2022-08-22T05:50:51.061Z,73.42
2022-08-22T05:53:08.620Z,72.68
2022-08-22T05:55:49.794Z,71.26
2022-08-22T05:58:36.353Z,72.08
2022-08-22T06:00:43.201Z,69.30
2022-08-22T06:03:19.850Z,71.29
2022-08-22T06:05:29.541Z,71.50
2022-08-22T06:07:44.083Z,70.64
2022-08-22T06:10:22.653Z,71.33
2022-08-22T06:12:44.316Z,71.92
2022-08-22T06:15:12.325Z,67.96
2022-08-22T06:17:37.639Z,69.77
2022-08-22T06:19:47.331Z,67.30
2022-08-22T06:21:55.478Z,68.23
2022-08-22T06:24:00.239Z,66.48
2022-08-22T06:26:04.117Z,69.06
2022-08-22T06:28:14.094Z,66.57
2022-08-22T06:30:17.857Z,66.78
2022-08-22T06:32:44.594Z,66.66
2022-08-22T06:34:48.083Z,67.00
2022-08-22T06:36:58.830Z,63.55
2022-08-22T06:39:05.949Z,65.99
2022-08-22T06:41:10.888Z,66.02
2022-08-22T06:43:13.497Z,66.01
2022-08-22T06:45:33.089Z,66.33
2022-08-22T06:47:40.045Z,65.58
2022-08-22T06:49:45.991Z,65.74
2022-08-22T06:51:49.555Z,65.59
2022-08-22T06:54:03.883Z,64.79
2022-08-22T06:56:06.941Z,65.64
2022-08-22T06:58:20.735Z,63.90
2022-08-22T07:00:22.916Z,62.92
2022-08-22T07:02:36.338Z,63.56
2022-08-22T07:04:38.894Z,63.02
2022-08-22T07:06:44.998Z,63.30
2022-08-22T07:08:53.649Z,62.79
2022-08-22T07:11:26.112Z,60.98
2022-08-22T07:13:30.535Z,60.82
2022-08-22T07:15:41.855Z,61.20
2022-08-22T07:17:54.633Z,61.22
2022-08-22T07:20:17.469Z,61.20
2022-08-22T07:22:26.257Z,61.86
2022-08-22T07:24:33.203Z,60.52
2022-08-22T07:26:47.310Z,60.93
2022-08-22T07:28:58.824Z,60.39
2022-08-22T07:31:12.620Z,60.89
2022-08-22T07:33:44.493Z,57.96
2022-08-22T07:36:28.402Z,58.94
2022-08-22T07:38:43.147Z,59.59
2022-08-22T07:40:45.115Z,60.66
2022-08-22T07:42:52.927Z,59.20
2022-08-22T07:45:14.041Z,59.15
2022-08-22T07:47:49.543Z,58.39
2022-08-22T07:49:58.800Z,59.67
2022-08-22T07:52:13.997Z,58.99
2022-08-22T07:54:45.034Z,59.61
2022-08-22T07:57:25.275Z,60.04
2022-08-22T07:59:29.548Z,59.24
2022-08-22T08:01:33.331Z,59.97
2022-08-22T08:03:36.249Z,60.04
2022-08-22T08:05:41.447Z,59.93
2022-08-22T08:07:48.069Z,59.71
2022-08-22T08:10:02.374Z,58.87
2022-08-22T08:12:06.956Z,57.67
2022-08-22T08:14:13.623Z,58.02
2022-08-22T08:16:24.828Z,58.81
2022-08-22T08:18:32.335Z,59.11
2022-08-22T08:20:36.633Z,60.17
2022-08-22T08:22:43.368Z,61.07
2022-08-22T08:24:46.281Z,61.76
2022-08-22T08:27:14.186Z,62.44
2022-08-22T08:29:19.014Z,62.70
2022-08-22T08:31:32.946Z,62.96
2022-08-22T08:33:40.027Z,61.95
2022-08-22T08:36:03.394Z,61.14
2022-08-22T08:38:19.917Z,61.24
2022-08-22T08:40:24.750Z,61.36
2022-08-22T08:43:17.205Z,60.70
2022-08-22T08:45:35.322Z,60.39
2022-08-22T08:47:53.031Z,60.60
2022-08-22T08:50:30.316Z,61.64
2022-08-22T08:52:58.860Z,62.28
2022-08-22T08:55:21.914Z,62.01
2022-08-22T08:58:12.619Z,62.06
2022-08-22T09:00:36.047Z,62.36
2022-08-22T09:03:06.906Z,62.23
2022-08-22T09:05:26.873Z,62.57
2022-08-22T09:07:53.135Z,61.95
2022-08-22T09:10:18.873Z,62.91
2022-08-22T09:13:12.235Z,61.98
2022-08-22T09:15:37.363Z,60.69
2022-08-22T09:18:05.652Z,60.58
2022-08-22T09:20:48.220Z,61.27
2022-08-22T09:23:26.166Z,60.70
2022-08-22T09:25:38.559Z,61.35
2022-08-22T09:27:58.128Z,60.48
2022-08-22T09:30:15.692Z,59.27
2022-08-22T09:32:42.610Z,58.79
2022-08-22T09:35:15.316Z,58.47
2022-08-22T09:37:39.189Z,57.55
2022-08-22T09:39:44.018Z,57.38
2022-08-22T09:42:14.143Z,56.98
2022-08-22T09:44:25.121Z,57.27
2022-08-22T09:46:47.572Z,58.68
2022-08-22T09:49:05.584Z,58.29
2022-08-22T09:51:34.796Z,58.69
2022-08-22T09:53:53.082Z,59.75
2022-08-22T09:56:11.645Z,59.78
2022-08-22T09:58:27.944Z,60.20
2022-08-22T10:00:44.477Z,59.98
2022-08-22T10:02:52.881Z,61.15
2022-08-22T10:05:10.015Z,60.73
2022-08-22T10:07:52.845Z,61.53
2022-08-22T10:10:32.434Z,61.39
2022-08-22T10:13:17.927Z,61.37
2022-08-22T10:15:48.834Z,62.90
2022-08-22T10:18:14.922Z,62.67
2022-08-22T10:20:49.878Z,62.79
2022-08-22T10:23:23.526Z,64.88
2022-08-22T10:25:32.949Z,67.06
2022-08-22T10:28:01.743Z,66.00
2022-08-22T10:30:09.677Z,67.39
2022-08-22T10:32:42.863Z,65.09
2022-08-22T10:34:50.857Z,66.11
2022-08-22T10:37:32.850Z,67.87
2022-08-22T10:39:49.127Z,66.95
2022-08-22T10:42:37.066Z,65.35
2022-08-22T10:45:08.710Z,64.97
2022-08-22T10:47:18.075Z,63.90
2022-08-22T10:49:41.669Z,63.60
2022-08-22T10:51:49.974Z,64.23
2022-08-22T10:54:05.680Z,64.26
2022-08-22T10:56:21.493Z,63.41
2022-08-22T10:58:29.649Z,63.26
2022-08-22T11:00:54.544Z,63.85
2022-08-22T11:03:18.705Z,63.73
2022-08-22T11:05:44.148Z,63.85
2022-08-22T11:08:10.105Z,64.43
2022-08-22T11:10:24.520Z,63.24
2022-08-22T11:12:41.483Z,65.07
2022-08-22T11:15:28.229Z,63.43
2022-08-22T11:18:15.661Z,64.55
2022-08-22T11:20:41.573Z,63.68
2022-08-22T11:23:15.928Z,62.59
2022-08-22T11:25:35.813Z,63.83
2022-08-22T11:28:13.876Z,63.73
2022-08-22T11:30:21.138Z,62.47
2022-08-22T11:32:25.123Z,63.34
2022-08-22T11:34:45.768Z,63.56
2022-08-22T11:36:53.083Z,62.92
2022-08-22T11:39:21.918Z,63.88
2022-08-22T11:41:45.727Z,62.85
2022-08-22T11:44:05.789Z,61.43
2022-08-22T11:46:29.400Z,62.88
2022-08-22T11:49:04.810Z,61.94
2022-08-22T11:51:17.539Z,61.96
2022-08-22T11:53:39.964Z,61.53
2022-08-22T11:55:48.279Z,62.30
2022-08-22T11:57:55.479Z,61.53
2022-08-22T12:00:20.816Z,61.76
2022-08-22T12:02:37.788Z,63.45
2022-08-22T12:04:48.122Z,62.32
2022-08-22T12:06:56.039Z,62.14
2022-08-22T12:09:10.065Z,61.06
2022-08-22T12:11:25.570Z,60.69
2022-08-22T12:13:39.533Z,61.00
2022-08-22T12:15:41.476Z,61.79
2022-08-22T12:18:16.373Z,62.27
2022-08-22T12:20:41.371Z,62.74
2022-08-22T12:23:05.422Z,63.62
2022-08-22T12:25:27.831Z,63.25
2022-08-22T12:27:58.257Z,62.96
2022-08-22T12:30:38.892Z,61.48
2022-08-22T12:33:13.170Z,61.08
2022-08-22T12:35:40.169Z,61.56
2022-08-22T12:37:53.138Z,60.34
2022-08-22T12:40:11.720Z,60.48
2022-08-22T12:42:13.653Z,60.71
2022-08-22T12:44:39.355Z,60.90
2022-08-22T12:46:58.653Z,59.96
2022-08-22T12:49:13.968Z,58.92
2022-08-22T12:51:31.545Z,59.05
2022-08-22T12:53:59.060Z,59.85
2022-08-22T12:56:34.449Z,58.87
2022-08-22T12:59:10.131Z,58.63
2022-08-22T13:01:16.097Z,58.56
2022-08-22T13:03:32.820Z,59.31
2022-08-22T13:05:40.965Z,60.64
2022-08-22T13:07:53.005Z,62.67
2022-08-22T13:10:17.409Z,65.10
2022-08-22T13:12:48.576Z,65.36
2022-08-22T13:15:07.153Z,64.52
2022-08-22T13:17:24.382Z,65.11
2022-08-22T13:19:32.460Z,65.30
2022-08-22T13:21:45.078Z,65.00
2022-08-22T13:23:53.500Z,66.13
2022-08-22T13:26:00.260Z,62.91
2022-08-22T13:28:09.747Z,63.17
2022-08-22T13:30:19.149Z,65.62
2022-08-22T13:32:33.585Z,66.28
2022-08-22T13:34:46.649Z,66.75
2022-08-22T13:36:54.425Z,66.21
2022-08-22T13:39:12.127Z,65.92
2022-08-22T13:41:23.577Z,66.44
2022-08-22T13:43:45.585Z,65.34
2022-08-22T13:46:02.014Z,61.56
2022-08-22T13:48:14.348Z,61.14
2022-08-22T13:50:29.001Z,61.16
2022-08-22T13:52:52.435Z,60.70
2022-08-22T13:55:27.623Z,60.29
2022-08-22T13:58:02.051Z,61.17
2022-08-22T14:00:27.428Z,60.97
2022-08-22T14:02:52.500Z,61.48
2022-08-22T14:04:57.021Z,60.41
2022-08-22T14:07:05.315Z,61.24
2022-08-22T14:09:32.914Z,61.70
2022-08-22T14:11:50.793Z,60.05
2022-08-22T14:14:01.425Z,60.83
2022-08-22T14:16:21.747Z,62.10
2022-08-22T14:18:32.057Z,59.61
2022-08-22T14:20:36.485Z,58.92
2022-08-22T14:22:58.959Z,59.21
2022-08-22T14:25:29.122Z,59.03
2022-08-22T14:28:03.072Z,59.76
2022-08-22T14:30:16.318Z,60.29
2022-08-22T14:32:26.695Z,59.39
2022-08-22T14:34:36.252Z,59.14
2022-08-22T14:36:48.902Z,59.40
2022-08-22T14:39:01.376Z,59.92
2022-08-22T14:41:07.923Z,58.70
2022-08-22T14:43:22.467Z,59.01
2022-08-22T14:45:40.434Z,59.14
2022-08-22T14:48:30.469Z,58.80
2022-08-22T14:50:53.314Z,59.66
2022-08-22T14:53:18.539Z,59.38
2022-08-22T14:55:30.510Z,59.47
2022-08-22T14:57:36.331Z,59.68
2022-08-22T14:59:50.531Z,59.27
2022-08-22T15:02:11.087Z,58.09
2022-08-22T15:04:43.437Z,58.23
2022-08-22T15:06:53.803Z,58.97
2022-08-22T15:08:57.333Z,58.98
2022-08-22T15:11:32.122Z,58.59
2022-08-22T15:13:36.166Z,58.73
2022-08-22T15:15:53.267Z,58.74
2022-08-22T15:17:57.417Z,59.42
2022-08-22T15:20:12.337Z,59.05
2022-08-22T15:22:22.143Z,59.08
2022-08-22T15:24:28.761Z,60.33
2022-08-22T15:26:40.825Z,59.82
2022-08-22T15:28:57.389Z,60.30
2022-08-22T15:31:05.551Z,59.77
2022-08-22T15:33:29.337Z,60.55
2022-08-22T15:35:32.294Z,60.20
2022-08-22T15:37:54.681Z,60.48
2022-08-22T15:40:28.766Z,59.71
2022-08-22T15:43:00.067Z,60.40
2022-08-22T15:45:03.888Z,60.73
2022-08-22T15:47:32.810Z,61.43
2022-08-22T15:49:51.192Z,60.83
2022-08-22T15:51:59.309Z,60.60
2022-08-22T15:54:16.432Z,60.29
2022-08-22T15:56:33.267Z,60.52
2022-08-22T15:58:48.585Z,60.71
2022-08-22T16:01:22.304Z,61.67
2022-08-22T16:03:29.088Z,62.12
2022-08-22T16:05:49.895Z,61.66
2022-08-22T16:07:58.193Z,61.81
2022-08-22T16:10:02.608Z,61.78
2022-08-22T16:12:11.265Z,62.20
2022-08-22T16:14:34.919Z,61.66
2022-08-22T16:16:51.543Z,62.06
2022-08-22T16:18:53.547Z,61.65
2022-08-22T16:21:03.433Z,61.81
2022-08-22T16:23:07.811Z,62.68
2022-08-22T16:25:10.988Z,62.33
2022-08-22T16:27:23.274Z,62.87
2022-08-22T16:29:41.209Z,62.14
2022-08-22T16:31:48.928Z,63.13
2022-08-22T16:33:51.833Z,63.76
2022-08-22T16:36:22.731Z,63.83
2022-08-22T16:38:36.734Z,63.39
2022-08-22T16:40:48.848Z,63.84
2022-08-22T16:43:17.629Z,64.22
2022-08-22T16:45:24.678Z,64.32
2022-08-22T16:47:36.680Z,64.82
2022-08-22T16:49:52.143Z,65.18
2022-08-22T16:52:22.541Z,65.11
2022-08-22T16:54:47.516Z,65.03
2022-08-22T16:57:07.958Z,64.82
2022-08-22T16:59:43.716Z,64.51
2022-08-22T17:02:02.493Z,64.95
2022-08-22T17:04:28.948Z,64.50
2022-08-22T17:06:32.699Z,64.44
2022-08-22T17:09:16.612Z,64.94
2022-08-22T17:11:37.116Z,65.34
2022-08-22T17:13:48.174Z,65.45
2022-08-22T17:16:21.608Z,65.42
2022-08-22T17:18:43.152Z,65.07
2022-08-22T17:20:53.651Z,65.30
2022-08-22T17:23:18.421Z,65.17
2022-08-22T17:25:35.717Z,65.93
2022-08-22T17:27:44.165Z,66.33
2022-08-22T17:30:09.428Z,66.61
2022-08-22T17:32:23.196Z,67.94
2022-08-22T17:34:36.804Z,67.86
2022-08-22T17:37:17.022Z,68.16
2022-08-22T17:39:24.894Z,68.33
2022-08-22T17:41:50.249Z,70.38
2022-08-22T17:44:18.506Z,71.61
2022-08-22T17:46:23.577Z,72.69
2022-08-22T17:49:02.934Z,73.27
2022-08-22T17:51:34.318Z,71.99
2022-08-22T17:53:46.436Z,72.38
2022-08-22T17:56:03.566Z,74.24
2022-08-22T17:58:35.745Z,75.70
2022-08-22T18:00:51.462Z,77.30
2022-08-22T18:03:07.567Z,78.70
2022-08-22T18:05:25.501Z,79.38
2022-08-22T18:07:46.047Z,80.01
2022-08-22T18:10:09.420Z,79.58
2022-08-22T18:12:34.536Z,80.66
2022-08-22T18:15:09.501Z,80.07
2022-08-22T18:17:19.857Z,79.81
2022-08-22T18:19:44.244Z,81.51
2022-08-22T18:22:05.959Z,82.35
2022-08-22T18:24:13.210Z,83.07
2022-08-22T18:26:21.095Z,83.22
2022-08-22T18:28:34.581Z,83.01
2022-08-22T18:31:02.971Z,81.90
2022-08-22T18:33:15.241Z,81.93
2022-08-22T18:35:42.452Z,83.08
2022-08-22T18:38:19.622Z,83.25
2022-08-22T18:40:32.262Z,83.46
2022-08-22T18:42:53.758Z,82.59
2022-08-22T18:44:56.054Z,82.78
2022-08-22T18:47:19.644Z,83.74
2022-08-22T18:49:24.524Z,84.02
2022-08-22T18:51:32.247Z,83.43
2022-08-22T18:53:47.233Z,84.35
2022-08-22T18:55:58.848Z,84.60
2022-08-22T18:58:13.132Z,82.49
2022-08-22T19:00:22.473Z,81.76
2022-08-22T19:02:34.407Z,80.83
2022-08-22T19:04:53.948Z,79.43
2022-08-22T19:07:05.726Z,79.10
2022-08-22T19:09:23.092Z,79.05
2022-08-22T19:12:01.281Z,78.78
2022-08-22T19:14:22.543Z,78.64
2022-08-22T19:16:49.160Z,78.65
2022-08-22T19:18:57.922Z,78.61
2022-08-22T19:21:39.567Z,79.19
2022-08-22T19:23:44.242Z,79.48
2022-08-22T19:26:26.335Z,79.61
2022-08-22T19:28:40.156Z,78.60
2022-08-22T19:30:48.300Z,78.26
2022-08-22T19:33:11.223Z,77.61
2022-08-22T19:35:18.736Z,77.22
2022-08-22T19:37:31.115Z,77.20
2022-08-22T19:40:09.478Z,77.55
2022-08-22T19:42:22.986Z,78.20
2022-08-22T19:44:41.520Z,78.17
2022-08-22T19:47:00.742Z,79.03
2022-08-22T19:49:31.904Z,78.99
2022-08-22T19:51:38.941Z,79.31
2022-08-22T19:54:07.312Z,80.01
2022-08-22T19:56:23.685Z,80.60
2022-08-22T19:59:07.254Z,80.36
2022-08-22T20:01:24.879Z,80.99
2022-08-22T20:03:46.489Z,81.38
2022-08-22T20:05:56.973Z,81.85
2022-08-22T20:08:15.051Z,81.79
2022-08-22T20:10:43.765Z,81.83
2022-08-22T20:16:13.584Z,82.81
2022-08-22T20:19:06.502Z,83.38
2022-08-22T20:21:11.489Z,83.65
2022-08-22T20:23:29.430Z,83.87
2022-08-22T20:25:52.331Z,82.97
2022-08-22T20:28:03.134Z,83.06
2022-08-22T20:30:11.448Z,83.24
2022-08-22T20:32:21.487Z,83.27
2022-08-22T20:34:32.333Z,83.64
2022-08-22T20:36:52.741Z,84.29
2022-08-22T20:39:16.726Z,84.29
2022-08-22T20:41:28.324Z,85.08
2022-08-22T20:46:59.019Z,85.45
2022-08-22T20:49:05.449Z,85.65
2022-08-22T20:51:12.813Z,86.06
2022-08-22T20:53:21.113Z,86.26
2022-08-22T20:55:31.914Z,86.45
2022-08-22T20:57:55.507Z,86.48
2022-08-22T21:00:19.494Z,87.00
2022-08-22T21:02:45.590Z,87.41
2022-08-22T21:04:57.414Z,87.59
2022-08-22T21:07:02.514Z,87.86
2022-08-22T21:09:40.721Z,87.37
2022-08-22T21:11:50.339Z,86.60
2022-08-22T21:14:23.636Z,85.98
2022-08-22T21:16:33.102Z,86.12
2022-08-22T21:18:41.893Z,86.62
2022-08-22T21:21:17.566Z,87.16
2022-08-22T21:23:22.184Z,87.64
2022-08-22T21:25:26.168Z,87.44
2022-08-22T21:27:35.119Z,88.01
2022-08-22T21:29:44.958Z,88.49
2022-08-22T21:31:53.181Z,89.41
2022-08-22T21:33:57.198Z,89.21
2022-08-22T21:36:00.427Z,88.96
2022-08-22T21:38:21.179Z,88.59
2022-08-22T21:40:37.931Z,88.95
2022-08-22T21:42:42.128Z,88.98
2022-08-22T21:44:59.294Z,89.77
2022-08-22T21:47:32.718Z,89.56
2022-08-22T21:49:36.944Z,89.38
2022-08-22T21:51:44.790Z,89.24
2022-08-22T21:53:46.816Z,89.45
2022-08-22T21:56:17.712Z,90.19
2022-08-22T21:58:34.160Z,90.33
2022-08-22T22:00:58.402Z,89.75
2022-08-22T22:03:03.319Z,89.61
2022-08-22T22:05:28.474Z,89.68
2022-08-22T22:07:35.414Z,89.74
2022-08-22T22:09:44.628Z,90.17
2022-08-22T22:12:02.656Z,90.01
2022-08-22T22:14:04.715Z,90.50
2022-08-22T22:16:13.364Z,90.73
2022-08-22T22:18:27.037Z,90.86
2022-08-22T22:20:29.319Z,90.84
2022-08-22T22:22:55.684Z,90.54
2022-08-22T22:25:03.851Z,90.34
2022-08-22T22:27:07.723Z,90.33
2022-08-22T22:29:11.061Z,90.52
2022-08-22T22:31:20.095Z,90.88
2022-08-22T22:33:29.381Z,91.08
2022-08-22T22:35:32.855Z,91.48
2022-08-22T22:37:36.951Z,91.55
2022-08-22T22:39:44.826Z,91.76
2022-08-22T22:41:46.966Z,91.83
2022-08-22T22:44:01.243Z,92.05
2022-08-22T22:46:22.660Z,92.15
2022-08-22T22:48:36.480Z,92.56
2022-08-22T22:50:41.031Z,92.66
2022-08-22T22:52:42.943Z,92.82
2022-08-22T22:54:48.000Z,92.97
2022-08-22T22:56:53.260Z,93.16
2022-08-22T22:59:00.937Z,93.48
2022-08-22T23:01:23.101Z,93.52
2022-08-22T23:03:29.227Z,93.49
2022-08-22T23:05:34.265Z,93.77
2022-08-22T23:07:39.150Z,94.15
2022-08-22T23:09:47.756Z,94.50
2022-08-22T23:11:51.716Z,94.54
2022-08-22T23:13:56.785Z,94.78
2022-08-22T23:16:16.377Z,94.75
2022-08-22T23:18:36.061Z,95.12
2022-08-22T23:20:38.993Z,95.29
2022-08-22T23:22:45.571Z,95.59
2022-08-22T23:24:57.284Z,95.61
2022-08-22T23:27:01.118Z,95.96
2022-08-22T23:29:07.129Z,96.23
2022-08-22T23:31:16.922Z,96.22
2022-08-22T23:33:19.942Z,96.15
2022-08-22T23:35:23.886Z,96.29
2022-08-22T23:37:25.893Z,96.85
2022-08-22T23:39:35.591Z,96.81
2022-08-22T23:41:39.794Z,96.92
2022-08-22T23:43:44.543Z,97.02
2022-08-22T23:45:48.178Z,97.25
2022-08-22T23:47:50.088Z,97.25
2022-08-22T23:49:53.012Z,97.03
2022-08-22T23:51:55.938Z,96.92
2022-08-22T23:54:00.847Z,96.81
2022-08-22T23:56:32.841Z,96.67
2022-08-22T23:58:35.891Z,96.86
